sensor_id;sensor_type;location;lat;lon;timestamp;P1;durP1;ratioP1;P2;durP2;ratioP2
1416;SDS011;703;51.162;13.574;2022-07-04T00:00:03;12.07;;;6.00;;
1416;SDS011;703;51.162;13.574;2022-07-04T00:02:29;11.70;;;5.33;;
1416;SDS011;703;51.162;13.574;2022-07-04T00:04:58;16.13;;;6.30;;
1416;SDS011;703;51.162;13.574;2022-07-04T00:07:23;11.60;;;6.30;;
1416;SDS011;703;51.162;13.574;2022-07-04T00:09:49;12.57;;;5.43;;
1416;SDS011;703;51.162;13.574;2022-07-04T00:12:15;11.20;;;5.40;;
1416;SDS011;703;51.162;13.574;2022-07-04T00:14:40;12.97;;;5.80;;
1416;SDS011;703;51.162;13.574;2022-07-04T00:17:06;11.93;;;5.60;;
1416;SDS011;703;51.162;13.574;2022-07-04T00:19:32;12.20;;;5.57;;
1416;SDS011;703;51.162;13.574;2022-07-04T00:21:57;12.30;;;5.57;;
1416;SDS011;703;51.162;13.574;2022-07-04T00:24:23;10.77;;;5.30;;
1416;SDS011;703;51.162;13.574;2022-07-04T00:26:49;10.60;;;4.80;;
1416;SDS011;703;51.162;13.574;2022-07-04T00:29:14;11.70;;;6.37;;
1416;SDS011;703;51.162;13.574;2022-07-04T00:31:40;12.00;;;6.37;;
1416;SDS011;703;51.162;13.574;2022-07-04T00:34:06;11.13;;;5.37;;
1416;SDS011;703;51.162;13.574;2022-07-04T00:36:31;13.80;;;5.63;;
1416;SDS011;703;51.162;13.574;2022-07-04T00:38:57;11.20;;;5.60;;
1416;SDS011;703;51.162;13.574;2022-07-04T00:41:23;11.77;;;6.33;;
1416;SDS011;703;51.162;13.574;2022-07-04T00:46:28;13.57;;;5.47;;
1416;SDS011;703;51.162;13.574;2022-07-04T00:48:54;10.47;;;4.87;;
1416;SDS011;703;51.162;13.574;2022-07-04T00:51:19;10.87;;;5.20;;
1416;SDS011;703;51.162;13.574;2022-07-04T00:53:45;14.17;;;5.13;;
1416;SDS011;703;51.162;13.574;2022-07-04T00:56:11;13.80;;;5.10;;
1416;SDS011;703;51.162;13.574;2022-07-04T00:58:36;13.20;;;4.73;;
1416;SDS011;703;51.162;13.574;2022-07-04T01:01:02;13.97;;;4.90;;
1416;SDS011;703;51.162;13.574;2022-07-04T01:03:28;11.07;;;4.50;;
1416;SDS011;703;51.162;13.574;2022-07-04T01:05:53;11.63;;;5.27;;
1416;SDS011;703;51.162;13.574;2022-07-04T01:08:20;12.20;;;5.60;;
1416;SDS011;703;51.162;13.574;2022-07-04T01:10:46;12.20;;;4.67;;
1416;SDS011;703;51.162;13.574;2022-07-04T01:13:21;11.70;;;3.90;;
1416;SDS011;703;51.162;13.574;2022-07-04T01:15:48;10.47;;;4.57;;
1416;SDS011;703;51.162;13.574;2022-07-04T01:18:17;10.33;;;4.53;;
1416;SDS011;703;51.162;13.574;2022-07-04T01:20:43;11.57;;;4.53;;
1416;SDS011;703;51.162;13.574;2022-07-04T01:23:09;11.93;;;4.70;;
1416;SDS011;703;51.162;13.574;2022-07-04T01:25:35;10.50;;;4.70;;
1416;SDS011;703;51.162;13.574;2022-07-04T01:28:01;14.23;;;5.00;;
1416;SDS011;703;51.162;13.574;2022-07-04T01:30:27;11.37;;;4.80;;
1416;SDS011;703;51.162;13.574;2022-07-04T01:32:54;9.80;;;4.10;;
1416;SDS011;703;51.162;13.574;2022-07-04T01:35:20;11.97;;;4.70;;
1416;SDS011;703;51.162;13.574;2022-07-04T01:37:47;10.00;;;4.10;;
1416;SDS011;703;51.162;13.574;2022-07-04T01:40:13;11.60;;;4.77;;
1416;SDS011;703;51.162;13.574;2022-07-04T01:42:39;10.90;;;4.60;;
1416;SDS011;703;51.162;13.574;2022-07-04T01:45:05;12.67;;;4.50;;
1416;SDS011;703;51.162;13.574;2022-07-04T01:47:32;11.47;;;5.10;;
1416;SDS011;703;51.162;13.574;2022-07-04T01:49:58;10.57;;;4.50;;
1416;SDS011;703;51.162;13.574;2022-07-04T01:52:24;10.83;;;4.40;;
1416;SDS011;703;51.162;13.574;2022-07-04T01:54:51;10.80;;;3.87;;
1416;SDS011;703;51.162;13.574;2022-07-04T01:57:17;11.30;;;4.07;;
1416;SDS011;703;51.162;13.574;2022-07-04T01:59:42;9.90;;;4.00;;
1416;SDS011;703;51.162;13.574;2022-07-04T02:02:27;10.43;;;4.60;;
1416;SDS011;703;51.162;13.574;2022-07-04T02:04:53;10.70;;;4.27;;
1416;SDS011;703;51.162;13.574;2022-07-04T02:07:18;11.23;;;4.10;;
1416;SDS011;703;51.162;13.574;2022-07-04T02:09:44;9.90;;;4.20;;
1416;SDS011;703;51.162;13.574;2022-07-04T02:12:10;14.53;;;4.17;;
1416;SDS011;703;51.162;13.574;2022-07-04T02:14:54;10.20;;;3.93;;
1416;SDS011;703;51.162;13.574;2022-07-04T02:17:19;11.70;;;4.80;;
1416;SDS011;703;51.162;13.574;2022-07-04T02:19:45;10.17;;;4.07;;
1416;SDS011;703;51.162;13.574;2022-07-04T02:22:11;10.83;;;4.73;;
1416;SDS011;703;51.162;13.574;2022-07-04T02:24:36;18.57;;;4.50;;
1416;SDS011;703;51.162;13.574;2022-07-04T02:27:02;10.00;;;4.20;;
1416;SDS011;703;51.162;13.574;2022-07-04T02:29:28;9.60;;;4.00;;
1416;SDS011;703;51.162;13.574;2022-07-04T02:31:53;9.87;;;3.90;;
1416;SDS011;703;51.162;13.574;2022-07-04T02:34:19;10.80;;;4.10;;
1416;SDS011;703;51.162;13.574;2022-07-04T02:36:45;11.47;;;4.53;;
1416;SDS011;703;51.162;13.574;2022-07-04T02:39:11;10.03;;;4.43;;
1416;SDS011;703;51.162;13.574;2022-07-04T02:41:36;11.30;;;4.60;;
1416;SDS011;703;51.162;13.574;2022-07-04T02:44:02;10.70;;;4.57;;
1416;SDS011;703;51.162;13.574;2022-07-04T02:46:28;12.20;;;4.87;;
1416;SDS011;703;51.162;13.574;2022-07-04T02:48:54;10.40;;;4.30;;
1416;SDS011;703;51.162;13.574;2022-07-04T02:51:19;10.80;;;4.33;;
1416;SDS011;703;51.162;13.574;2022-07-04T02:53:45;12.93;;;4.83;;
1416;SDS011;703;51.162;13.574;2022-07-04T02:56:11;11.47;;;5.17;;
1416;SDS011;703;51.162;13.574;2022-07-04T02:58:36;14.10;;;5.10;;
1416;SDS011;703;51.162;13.574;2022-07-04T03:01:02;10.20;;;5.03;;
1416;SDS011;703;51.162;13.574;2022-07-04T03:03:28;9.87;;;4.43;;
1416;SDS011;703;51.162;13.574;2022-07-04T03:05:53;11.10;;;4.43;;
1416;SDS011;703;51.162;13.574;2022-07-04T03:08:19;13.60;;;4.40;;
1416;SDS011;703;51.162;13.574;2022-07-04T03:10:45;13.87;;;4.90;;
1416;SDS011;703;51.162;13.574;2022-07-04T03:13:10;11.10;;;4.40;;
1416;SDS011;703;51.162;13.574;2022-07-04T03:15:36;11.60;;;4.00;;
1416;SDS011;703;51.162;13.574;2022-07-04T03:18:01;9.40;;;3.90;;
1416;SDS011;703;51.162;13.574;2022-07-04T03:20:27;11.00;;;4.40;;
1416;SDS011;703;51.162;13.574;2022-07-04T03:22:53;10.00;;;4.57;;
1416;SDS011;703;51.162;13.574;2022-07-04T03:25:19;12.33;;;4.40;;
1416;SDS011;703;51.162;13.574;2022-07-04T03:27:48;10.30;;;4.40;;
1416;SDS011;703;51.162;13.574;2022-07-04T03:30:14;12.57;;;5.23;;
1416;SDS011;703;51.162;13.574;2022-07-04T03:32:39;12.20;;;4.80;;
1416;SDS011;703;51.162;13.574;2022-07-04T03:35:05;9.70;;;4.07;;
1416;SDS011;703;51.162;13.574;2022-07-04T03:37:31;11.10;;;4.90;;
1416;SDS011;703;51.162;13.574;2022-07-04T03:39:56;10.90;;;4.20;;
1416;SDS011;703;51.162;13.574;2022-07-04T03:42:22;13.07;;;5.17;;
1416;SDS011;703;51.162;13.574;2022-07-04T03:44:48;11.63;;;4.50;;
1416;SDS011;703;51.162;13.574;2022-07-04T03:47:13;11.20;;;4.80;;
1416;SDS011;703;51.162;13.574;2022-07-04T03:49:39;15.53;;;5.20;;
1416;SDS011;703;51.162;13.574;2022-07-04T03:52:05;10.17;;;4.23;;
1416;SDS011;703;51.162;13.574;2022-07-04T03:54:31;10.97;;;5.13;;
1416;SDS011;703;51.162;13.574;2022-07-04T03:56:56;10.60;;;4.83;;
1416;SDS011;703;51.162;13.574;2022-07-04T03:59:22;11.57;;;4.53;;
1416;SDS011;703;51.162;13.574;2022-07-04T04:01:48;12.47;;;5.13;;
1416;SDS011;703;51.162;13.574;2022-07-04T04:04:13;10.00;;;4.33;;
1416;SDS011;703;51.162;13.574;2022-07-04T04:06:57;11.63;;;5.00;;
1416;SDS011;703;51.162;13.574;2022-07-04T04:09:23;11.93;;;5.00;;
1416;SDS011;703;51.162;13.574;2022-07-04T04:11:50;15.17;;;5.47;;
1416;SDS011;703;51.162;13.574;2022-07-04T04:14:15;12.50;;;5.00;;
1416;SDS011;703;51.162;13.574;2022-07-04T04:16:41;12.47;;;5.60;;
1416;SDS011;703;51.162;13.574;2022-07-04T04:19:08;11.33;;;5.33;;
1416;SDS011;703;51.162;13.574;2022-07-04T04:21:34;11.77;;;5.93;;
1416;SDS011;703;51.162;13.574;2022-07-04T04:24:00;11.40;;;5.60;;
1416;SDS011;703;51.162;13.574;2022-07-04T04:26:26;13.40;;;5.77;;
1416;SDS011;703;51.162;13.574;2022-07-04T04:28:51;13.87;;;6.17;;
1416;SDS011;703;51.162;13.574;2022-07-04T04:31:17;11.37;;;6.27;;
1416;SDS011;703;51.162;13.574;2022-07-04T04:33:43;12.73;;;5.57;;
1416;SDS011;703;51.162;13.574;2022-07-04T04:36:08;11.53;;;5.77;;
1416;SDS011;703;51.162;13.574;2022-07-04T04:38:37;15.03;;;5.87;;
1416;SDS011;703;51.162;13.574;2022-07-04T04:41:03;11.10;;;5.63;;
1416;SDS011;703;51.162;13.574;2022-07-04T04:43:28;18.03;;;6.70;;
1416;SDS011;703;51.162;13.574;2022-07-04T04:45:54;14.60;;;7.03;;
1416;SDS011;703;51.162;13.574;2022-07-04T04:48:20;11.67;;;6.50;;
1416;SDS011;703;51.162;13.574;2022-07-04T04:50:45;12.50;;;7.13;;
1416;SDS011;703;51.162;13.574;2022-07-04T04:53:11;12.80;;;6.33;;
1416;SDS011;703;51.162;13.574;2022-07-04T04:55:37;13.33;;;5.90;;
1416;SDS011;703;51.162;13.574;2022-07-04T04:58:04;14.20;;;6.07;;
1416;SDS011;703;51.162;13.574;2022-07-04T05:00:29;10.80;;;6.17;;
1416;SDS011;703;51.162;13.574;2022-07-04T05:02:55;12.07;;;6.60;;
1416;SDS011;703;51.162;13.574;2022-07-04T05:05:21;13.97;;;7.00;;
1416;SDS011;703;51.162;13.574;2022-07-04T05:07:47;15.00;;;7.00;;
1416;SDS011;703;51.162;13.574;2022-07-04T05:10:12;11.70;;;6.03;;
1416;SDS011;703;51.162;13.574;2022-07-04T05:12:38;13.60;;;6.87;;
1416;SDS011;703;51.162;13.574;2022-07-04T05:15:04;11.40;;;5.70;;
1416;SDS011;703;51.162;13.574;2022-07-04T05:17:30;12.60;;;7.50;;
1416;SDS011;703;51.162;13.574;2022-07-04T05:19:55;13.33;;;7.10;;
1416;SDS011;703;51.162;13.574;2022-07-04T05:22:21;13.77;;;5.83;;
1416;SDS011;703;51.162;13.574;2022-07-04T05:24:46;11.70;;;6.40;;
1416;SDS011;703;51.162;13.574;2022-07-04T05:27:12;12.90;;;7.10;;
1416;SDS011;703;51.162;13.574;2022-07-04T05:29:38;11.77;;;6.17;;
1416;SDS011;703;51.162;13.574;2022-07-04T05:32:04;11.97;;;6.20;;
1416;SDS011;703;51.162;13.574;2022-07-04T05:34:31;11.37;;;5.37;;
1416;SDS011;703;51.162;13.574;2022-07-04T05:36:56;11.30;;;6.20;;
1416;SDS011;703;51.162;13.574;2022-07-04T05:39:22;15.70;;;6.03;;
1416;SDS011;703;51.162;13.574;2022-07-04T05:41:48;11.73;;;5.70;;
1416;SDS011;703;51.162;13.574;2022-07-04T05:44:13;11.83;;;5.40;;
1416;SDS011;703;51.162;13.574;2022-07-04T05:46:39;11.77;;;4.90;;
1416;SDS011;703;51.162;13.574;2022-07-04T05:49:04;13.40;;;6.07;;
1416;SDS011;703;51.162;13.574;2022-07-04T05:51:30;12.20;;;6.13;;
1416;SDS011;703;51.162;13.574;2022-07-04T05:53:56;11.30;;;5.50;;
1416;SDS011;703;51.162;13.574;2022-07-04T05:56:21;11.63;;;6.53;;
1416;SDS011;703;51.162;13.574;2022-07-04T05:58:48;11.43;;;6.37;;
1416;SDS011;703;51.162;13.574;2022-07-04T06:01:14;10.83;;;5.47;;
1416;SDS011;703;51.162;13.574;2022-07-04T06:03:39;10.97;;;5.50;;
1416;SDS011;703;51.162;13.574;2022-07-04T06:06:05;15.83;;;5.57;;
1416;SDS011;703;51.162;13.574;2022-07-04T06:08:32;15.03;;;5.13;;
1416;SDS011;703;51.162;13.574;2022-07-04T06:10:57;12.13;;;5.50;;
1416;SDS011;703;51.162;13.574;2022-07-04T06:13:23;12.77;;;5.70;;
1416;SDS011;703;51.162;13.574;2022-07-04T06:15:49;11.43;;;5.60;;
1416;SDS011;703;51.162;13.574;2022-07-04T06:18:15;12.07;;;5.80;;
1416;SDS011;703;51.162;13.574;2022-07-04T06:20:41;13.13;;;5.60;;
1416;SDS011;703;51.162;13.574;2022-07-04T06:23:07;10.80;;;5.33;;
1416;SDS011;703;51.162;13.574;2022-07-04T06:25:33;10.93;;;4.80;;
1416;SDS011;703;51.162;13.574;2022-07-04T06:27:58;11.37;;;5.30;;
1416;SDS011;703;51.162;13.574;2022-07-04T06:30:25;10.87;;;4.67;;
1416;SDS011;703;51.162;13.574;2022-07-04T06:32:51;10.40;;;5.13;;
1416;SDS011;703;51.162;13.574;2022-07-04T06:35:22;12.77;;;5.17;;
1416;SDS011;703;51.162;13.574;2022-07-04T06:38:08;11.93;;;5.50;;
1416;SDS011;703;51.162;13.574;2022-07-04T06:40:35;12.10;;;5.40;;
1416;SDS011;703;51.162;13.574;2022-07-04T06:43:02;11.00;;;4.50;;
1416;SDS011;703;51.162;13.574;2022-07-04T06:45:28;11.20;;;5.20;;
1416;SDS011;703;51.162;13.574;2022-07-04T06:47:54;10.40;;;4.20;;
1416;SDS011;703;51.162;13.574;2022-07-04T06:50:20;11.53;;;4.83;;
1416;SDS011;703;51.162;13.574;2022-07-04T06:52:46;13.13;;;5.10;;
1416;SDS011;703;51.162;13.574;2022-07-04T06:55:11;10.00;;;4.77;;
1416;SDS011;703;51.162;13.574;2022-07-04T06:57:37;12.60;;;4.50;;
1416;SDS011;703;51.162;13.574;2022-07-04T07:00:04;10.90;;;4.20;;
1416;SDS011;703;51.162;13.574;2022-07-04T07:02:35;11.10;;;4.60;;
1416;SDS011;703;51.162;13.574;2022-07-04T07:05:01;13.57;;;5.10;;
1416;SDS011;703;51.162;13.574;2022-07-04T07:07:27;11.17;;;5.67;;
1416;SDS011;703;51.162;13.574;2022-07-04T07:09:53;11.50;;;5.20;;
1416;SDS011;703;51.162;13.574;2022-07-04T07:12:20;11.47;;;4.60;;
1416;SDS011;703;51.162;13.574;2022-07-04T07:14:46;10.97;;;5.03;;
1416;SDS011;703;51.162;13.574;2022-07-04T07:17:12;11.57;;;5.03;;
1416;SDS011;703;51.162;13.574;2022-07-04T07:19:38;10.23;;;4.40;;
1416;SDS011;703;51.162;13.574;2022-07-04T07:22:04;12.37;;;5.40;;
1416;SDS011;703;51.162;13.574;2022-07-04T07:24:32;10.40;;;4.23;;
1416;SDS011;703;51.162;13.574;2022-07-04T07:26:58;12.30;;;4.60;;
1416;SDS011;703;51.162;13.574;2022-07-04T07:29:23;11.00;;;4.60;;
1416;SDS011;703;51.162;13.574;2022-07-04T07:31:49;9.87;;;3.73;;
1416;SDS011;703;51.162;13.574;2022-07-04T07:34:15;11.53;;;5.20;;
1416;SDS011;703;51.162;13.574;2022-07-04T07:36:41;10.40;;;4.63;;
1416;SDS011;703;51.162;13.574;2022-07-04T07:39:06;13.47;;;4.07;;
1416;SDS011;703;51.162;13.574;2022-07-04T07:41:32;9.60;;;3.97;;
1416;SDS011;703;51.162;13.574;2022-07-04T07:43:58;13.07;;;4.97;;
1416;SDS011;703;51.162;13.574;2022-07-04T07:46:23;10.40;;;3.80;;
1416;SDS011;703;51.162;13.574;2022-07-04T07:48:49;10.47;;;4.00;;
1416;SDS011;703;51.162;13.574;2022-07-04T07:51:15;11.00;;;4.03;;
1416;SDS011;703;51.162;13.574;2022-07-04T07:53:41;10.10;;;3.80;;
1416;SDS011;703;51.162;13.574;2022-07-04T07:56:07;10.40;;;3.93;;
1416;SDS011;703;51.162;13.574;2022-07-04T07:58:33;12.03;;;3.43;;
1416;SDS011;703;51.162;13.574;2022-07-04T08:00:59;10.30;;;3.37;;
1416;SDS011;703;51.162;13.574;2022-07-04T08:03:27;9.77;;;3.50;;
1416;SDS011;703;51.162;13.574;2022-07-04T08:06:11;10.40;;;3.90;;
1416;SDS011;703;51.162;13.574;2022-07-04T08:08:37;12.30;;;4.10;;
1416;SDS011;703;51.162;13.574;2022-07-04T08:11:03;10.20;;;3.90;;
1416;SDS011;703;51.162;13.574;2022-07-04T08:13:29;11.10;;;3.57;;
1416;SDS011;703;51.162;13.574;2022-07-04T08:15:55;9.87;;;3.00;;
1416;SDS011;703;51.162;13.574;2022-07-04T08:18:21;10.13;;;3.70;;
1416;SDS011;703;51.162;13.574;2022-07-04T08:20:48;10.20;;;3.40;;
1416;SDS011;703;51.162;13.574;2022-07-04T08:23:14;10.23;;;3.27;;
1416;SDS011;703;51.162;13.574;2022-07-04T08:25:39;12.80;;;3.33;;
1416;SDS011;703;51.162;13.574;2022-07-04T08:28:05;10.07;;;3.57;;
1416;SDS011;703;51.162;13.574;2022-07-04T08:30:31;13.33;;;3.17;;
1416;SDS011;703;51.162;13.574;2022-07-04T08:32:56;9.20;;;2.77;;
1416;SDS011;703;51.162;13.574;2022-07-04T08:35:22;11.03;;;3.57;;
1416;SDS011;703;51.162;13.574;2022-07-04T08:37:48;14.40;;;3.27;;
1416;SDS011;703;51.162;13.574;2022-07-04T08:40:18;10.33;;;3.47;;
1416;SDS011;703;51.162;13.574;2022-07-04T08:42:48;9.30;;;3.17;;
1416;SDS011;703;51.162;13.574;2022-07-04T08:45:14;13.90;;;3.13;;
1416;SDS011;703;51.162;13.574;2022-07-04T08:47:42;9.80;;;3.20;;
1416;SDS011;703;51.162;13.574;2022-07-04T08:50:09;9.97;;;2.97;;
1416;SDS011;703;51.162;13.574;2022-07-04T08:52:58;11.80;;;2.90;;
1416;SDS011;703;51.162;13.574;2022-07-04T08:55:27;9.73;;;2.73;;
1416;SDS011;703;51.162;13.574;2022-07-04T08:58:12;9.50;;;2.70;;
1416;SDS011;703;51.162;13.574;2022-07-04T09:00:50;9.73;;;3.00;;
1416;SDS011;703;51.162;13.574;2022-07-04T09:03:17;9.77;;;2.77;;
1416;SDS011;703;51.162;13.574;2022-07-04T09:05:44;10.53;;;3.20;;
1416;SDS011;703;51.162;13.574;2022-07-04T09:08:09;9.97;;;2.70;;
1416;SDS011;703;51.162;13.574;2022-07-04T09:10:35;10.13;;;2.70;;
1416;SDS011;703;51.162;13.574;2022-07-04T09:13:03;11.27;;;3.07;;
1416;SDS011;703;51.162;13.574;2022-07-04T09:15:33;10.63;;;2.57;;
1416;SDS011;703;51.162;13.574;2022-07-04T09:18:02;9.47;;;2.90;;
1416;SDS011;703;51.162;13.574;2022-07-04T09:20:30;13.60;;;3.33;;
1416;SDS011;703;51.162;13.574;2022-07-04T09:22:57;9.70;;;2.73;;
1416;SDS011;703;51.162;13.574;2022-07-04T09:25:23;9.30;;;2.70;;
1416;SDS011;703;51.162;13.574;2022-07-04T09:27:53;11.10;;;2.70;;
1416;SDS011;703;51.162;13.574;2022-07-04T09:30:24;9.57;;;2.70;;
1416;SDS011;703;51.162;13.574;2022-07-04T09:32:53;12.90;;;3.00;;
1416;SDS011;703;51.162;13.574;2022-07-04T09:35:25;10.43;;;2.90;;
1416;SDS011;703;51.162;13.574;2022-07-04T09:37:53;9.53;;;2.67;;
1416;SDS011;703;51.162;13.574;2022-07-04T09:40:25;11.33;;;2.73;;
1416;SDS011;703;51.162;13.574;2022-07-04T09:42:52;11.73;;;3.00;;
1416;SDS011;703;51.162;13.574;2022-07-04T09:45:19;10.20;;;2.50;;
1416;SDS011;703;51.162;13.574;2022-07-04T09:47:48;9.57;;;2.33;;
1416;SDS011;703;51.162;13.574;2022-07-04T09:50:19;10.87;;;2.93;;
1416;SDS011;703;51.162;13.574;2022-07-04T09:55:24;10.43;;;2.40;;
1416;SDS011;703;51.162;13.574;2022-07-04T09:57:50;10.40;;;2.70;;
1416;SDS011;703;51.162;13.574;2022-07-04T10:03:15;10.17;;;2.67;;
1416;SDS011;703;51.162;13.574;2022-07-04T10:06:05;11.70;;;2.90;;
1416;SDS011;703;51.162;13.574;2022-07-04T10:08:35;10.20;;;2.50;;
1416;SDS011;703;51.162;13.574;2022-07-04T10:11:01;9.50;;;3.10;;
1416;SDS011;703;51.162;13.574;2022-07-04T10:13:28;8.97;;;2.20;;
1416;SDS011;703;51.162;13.574;2022-07-04T10:15:54;11.00;;;2.70;;
1416;SDS011;703;51.162;13.574;2022-07-04T10:18:20;8.90;;;2.27;;
1416;SDS011;703;51.162;13.574;2022-07-04T10:20:47;9.27;;;1.90;;
1416;SDS011;703;51.162;13.574;2022-07-04T10:23:16;9.00;;;2.30;;
1416;SDS011;703;51.162;13.574;2022-07-04T10:25:46;9.90;;;1.87;;
1416;SDS011;703;51.162;13.574;2022-07-04T10:28:16;9.10;;;2.30;;
1416;SDS011;703;51.162;13.574;2022-07-04T10:30:44;12.27;;;2.60;;
1416;SDS011;703;51.162;13.574;2022-07-04T10:33:12;9.40;;;2.30;;
1416;SDS011;703;51.162;13.574;2022-07-04T10:38:26;9.27;;;2.10;;
1416;SDS011;703;51.162;13.574;2022-07-04T10:40:57;9.30;;;2.73;;
1416;SDS011;703;51.162;13.574;2022-07-04T10:48:31;8.87;;;2.00;;
1416;SDS011;703;51.162;13.574;2022-07-04T10:51:05;9.53;;;1.90;;
1416;SDS011;703;51.162;13.574;2022-07-04T10:53:32;10.03;;;1.93;;
1416;SDS011;703;51.162;13.574;2022-07-04T10:58:42;8.80;;;2.30;;
1416;SDS011;703;51.162;13.574;2022-07-04T11:01:15;8.70;;;2.00;;
1416;SDS011;703;51.162;13.574;2022-07-04T11:03:45;8.67;;;2.07;;
1416;SDS011;703;51.162;13.574;2022-07-04T11:09:20;9.40;;;1.97;;
1416;SDS011;703;51.162;13.574;2022-07-04T11:11:50;9.43;;;1.80;;
1416;SDS011;703;51.162;13.574;2022-07-04T11:17:26;9.23;;;2.13;;
1416;SDS011;703;51.162;13.574;2022-07-04T11:20:01;9.60;;;2.20;;
1416;SDS011;703;51.162;13.574;2022-07-04T11:22:29;10.53;;;2.47;;
1416;SDS011;703;51.162;13.574;2022-07-04T11:24:55;9.00;;;2.00;;
1416;SDS011;703;51.162;13.574;2022-07-04T11:27:21;9.70;;;2.30;;
1416;SDS011;703;51.162;13.574;2022-07-04T11:32:17;10.03;;;2.07;;
1416;SDS011;703;51.162;13.574;2022-07-04T11:34:43;8.60;;;1.97;;
1416;SDS011;703;51.162;13.574;2022-07-04T11:37:09;9.67;;;1.90;;
1416;SDS011;703;51.162;13.574;2022-07-04T11:39:34;9.10;;;1.70;;
1416;SDS011;703;51.162;13.574;2022-07-04T11:42:00;9.70;;;1.83;;
1416;SDS011;703;51.162;13.574;2022-07-04T11:45:01;9.27;;;2.00;;
1416;SDS011;703;51.162;13.574;2022-07-04T11:50:01;9.27;;;1.93;;
1416;SDS011;703;51.162;13.574;2022-07-04T11:55:12;10.67;;;2.37;;
1416;SDS011;703;51.162;13.574;2022-07-04T11:57:39;9.57;;;2.00;;
1416;SDS011;703;51.162;13.574;2022-07-04T12:00:11;8.90;;;2.20;;
1416;SDS011;703;51.162;13.574;2022-07-04T12:02:37;11.40;;;2.33;;
1416;SDS011;703;51.162;13.574;2022-07-04T12:05:04;8.73;;;1.60;;
1416;SDS011;703;51.162;13.574;2022-07-04T12:07:32;11.20;;;2.27;;
1416;SDS011;703;51.162;13.574;2022-07-04T12:15:18;10.60;;;1.80;;
1416;SDS011;703;51.162;13.574;2022-07-04T12:17:48;10.67;;;2.93;;
1416;SDS011;703;51.162;13.574;2022-07-04T12:20:17;8.23;;;1.50;;
1416;SDS011;703;51.162;13.574;2022-07-04T12:22:48;9.27;;;1.93;;
1416;SDS011;703;51.162;13.574;2022-07-04T12:25:22;9.07;;;2.00;;
1416;SDS011;703;51.162;13.574;2022-07-04T12:27:55;8.87;;;2.33;;
1416;SDS011;703;51.162;13.574;2022-07-04T12:30:27;9.50;;;1.70;;
1416;SDS011;703;51.162;13.574;2022-07-04T12:32:59;14.50;;;2.10;;
1416;SDS011;703;51.162;13.574;2022-07-04T12:35:33;11.97;;;2.33;;
1416;SDS011;703;51.162;13.574;2022-07-04T12:40:34;8.30;;;1.80;;
1416;SDS011;703;51.162;13.574;2022-07-04T12:43:01;12.10;;;2.50;;
1416;SDS011;703;51.162;13.574;2022-07-04T12:45:43;8.57;;;2.00;;
1416;SDS011;703;51.162;13.574;2022-07-04T12:48:22;10.80;;;1.83;;
1416;SDS011;703;51.162;13.574;2022-07-04T12:50:50;8.30;;;1.70;;
1416;SDS011;703;51.162;13.574;2022-07-04T12:53:18;10.60;;;1.93;;
1416;SDS011;703;51.162;13.574;2022-07-04T12:55:45;10.83;;;3.07;;
1416;SDS011;703;51.162;13.574;2022-07-04T12:58:11;10.53;;;1.83;;
1416;SDS011;703;51.162;13.574;2022-07-04T13:00:38;9.40;;;1.90;;
1416;SDS011;703;51.162;13.574;2022-07-04T13:03:04;11.47;;;1.90;;
1416;SDS011;703;51.162;13.574;2022-07-04T13:05:32;8.67;;;1.47;;
1416;SDS011;703;51.162;13.574;2022-07-04T13:07:59;9.37;;;2.00;;
1416;SDS011;703;51.162;13.574;2022-07-04T13:10:25;9.03;;;1.80;;
1416;SDS011;703;51.162;13.574;2022-07-04T13:12:50;9.53;;;2.47;;
1416;SDS011;703;51.162;13.574;2022-07-04T13:15:16;11.07;;;2.13;;
1416;SDS011;703;51.162;13.574;2022-07-04T13:17:42;8.67;;;1.57;;
1416;SDS011;703;51.162;13.574;2022-07-04T13:20:08;8.20;;;1.90;;
1416;SDS011;703;51.162;13.574;2022-07-04T13:22:34;9.00;;;2.57;;
1416;SDS011;703;51.162;13.574;2022-07-04T13:25:00;9.87;;;2.20;;
1416;SDS011;703;51.162;13.574;2022-07-04T13:27:28;9.20;;;2.60;;
1416;SDS011;703;51.162;13.574;2022-07-04T13:29:54;8.67;;;2.40;;
1416;SDS011;703;51.162;13.574;2022-07-04T13:32:19;8.27;;;2.30;;
1416;SDS011;703;51.162;13.574;2022-07-04T13:34:45;15.90;;;2.50;;
1416;SDS011;703;51.162;13.574;2022-07-04T13:37:11;11.23;;;2.90;;
1416;SDS011;703;51.162;13.574;2022-07-04T13:39:36;9.90;;;3.30;;
1416;SDS011;703;51.162;13.574;2022-07-04T13:42:02;9.40;;;3.43;;
1416;SDS011;703;51.162;13.574;2022-07-04T13:44:28;8.90;;;3.43;;
1416;SDS011;703;51.162;13.574;2022-07-04T13:46:54;9.90;;;4.03;;
1416;SDS011;703;51.162;13.574;2022-07-04T13:49:21;12.67;;;3.90;;
1416;SDS011;703;51.162;13.574;2022-07-04T13:51:47;9.90;;;4.17;;
1416;SDS011;703;51.162;13.574;2022-07-04T13:54:13;9.17;;;3.80;;
1416;SDS011;703;51.162;13.574;2022-07-04T13:56:39;9.80;;;4.83;;
1416;SDS011;703;51.162;13.574;2022-07-04T13:59:05;10.10;;;4.80;;
1416;SDS011;703;51.162;13.574;2022-07-04T14:01:30;9.70;;;4.60;;
1416;SDS011;703;51.162;13.574;2022-07-04T14:03:56;9.47;;;4.23;;
1416;SDS011;703;51.162;13.574;2022-07-04T14:06:22;9.07;;;4.07;;
1416;SDS011;703;51.162;13.574;2022-07-04T14:08:47;12.20;;;3.87;;
1416;SDS011;703;51.162;13.574;2022-07-04T14:11:13;10.07;;;4.50;;
1416;SDS011;703;51.162;13.574;2022-07-04T14:13:39;11.17;;;3.97;;
1416;SDS011;703;51.162;13.574;2022-07-04T14:16:05;11.60;;;3.47;;
1416;SDS011;703;51.162;13.574;2022-07-04T17:15:47;9.70;;;2.20;;
1416;SDS011;703;51.162;13.574;2022-07-04T17:18:13;8.93;;;1.70;;
1416;SDS011;703;51.162;13.574;2022-07-04T17:20:39;11.10;;;2.63;;
1416;SDS011;703;51.162;13.574;2022-07-04T17:23:07;8.80;;;2.10;;
1416;SDS011;703;51.162;13.574;2022-07-04T17:25:34;8.90;;;2.00;;
1416;SDS011;703;51.162;13.574;2022-07-04T17:27:59;8.77;;;2.17;;
1416;SDS011;703;51.162;13.574;2022-07-04T17:30:25;8.80;;;1.83;;
1416;SDS011;703;51.162;13.574;2022-07-04T17:32:50;9.90;;;1.90;;
1416;SDS011;703;51.162;13.574;2022-07-04T17:35:17;9.40;;;2.60;;
1416;SDS011;703;51.162;13.574;2022-07-04T17:37:42;9.50;;;2.40;;
1416;SDS011;703;51.162;13.574;2022-07-04T17:40:08;9.07;;;2.30;;
1416;SDS011;703;51.162;13.574;2022-07-04T17:42:34;10.40;;;2.67;;
1416;SDS011;703;51.162;13.574;2022-07-04T17:45:00;9.90;;;2.20;;
1416;SDS011;703;51.162;13.574;2022-07-04T17:47:25;9.87;;;2.60;;
1416;SDS011;703;51.162;13.574;2022-07-04T17:49:51;8.80;;;1.90;;
1416;SDS011;703;51.162;13.574;2022-07-04T17:52:17;9.10;;;2.10;;
1416;SDS011;703;51.162;13.574;2022-07-04T17:54:43;8.27;;;2.07;;
1416;SDS011;703;51.162;13.574;2022-07-04T17:57:08;16.67;;;2.47;;
1416;SDS011;703;51.162;13.574;2022-07-04T17:59:34;10.00;;;2.13;;
1416;SDS011;703;51.162;13.574;2022-07-04T18:01:59;8.87;;;2.33;;
1416;SDS011;703;51.162;13.574;2022-07-04T18:04:25;9.20;;;2.40;;
1416;SDS011;703;51.162;13.574;2022-07-04T18:06:50;12.10;;;2.53;;
1416;SDS011;703;51.162;13.574;2022-07-04T18:09:17;9.37;;;2.10;;
1416;SDS011;703;51.162;13.574;2022-07-04T18:11:42;9.87;;;2.63;;
1416;SDS011;703;51.162;13.574;2022-07-04T18:14:08;10.10;;;2.73;;
1416;SDS011;703;51.162;13.574;2022-07-04T18:16:34;9.20;;;2.00;;
1416;SDS011;703;51.162;13.574;2022-07-04T18:18:59;9.23;;;2.10;;
1416;SDS011;703;51.162;13.574;2022-07-04T18:21:25;9.80;;;2.33;;
1416;SDS011;703;51.162;13.574;2022-07-04T18:23:51;11.00;;;2.47;;
1416;SDS011;703;51.162;13.574;2022-07-04T18:26:17;12.13;;;2.53;;
1416;SDS011;703;51.162;13.574;2022-07-04T18:28:42;10.73;;;2.70;;
1416;SDS011;703;51.162;13.574;2022-07-04T18:31:11;9.77;;;2.10;;
1416;SDS011;703;51.162;13.574;2022-07-04T18:33:38;11.23;;;2.20;;
1416;SDS011;703;51.162;13.574;2022-07-04T18:36:05;10.50;;;2.60;;
1416;SDS011;703;51.162;13.574;2022-07-04T18:38:32;9.23;;;2.47;;
1416;SDS011;703;51.162;13.574;2022-07-04T18:40:58;9.30;;;2.37;;